Massillon, Ohio
Current Conditions -  °F | °C
As of 2:18 AM on Thursday 23 Oct 2014 (Local Time) from KCAK Reporting Station
Overcast Overcast  
Wind Chill: 45°   Ceiling: 1000
Heat Index: 48°   Visibility: 10mi
Dew Point: 45°   Wind: 7mph
Humidity: 87%   Direction: 360°N
Pressure: 30.18"   Gusts: NA
Location:  40.79°N, 81.52°W
Report Text: KCAK 230618Z 36006KT 10SM OVC010 09/07 A3018 RMK AO2 $
Loading
Personal Weather Stations






























Interactive Weather Map New forecast layout! Learn more

10-Day Weather Forecast

Advertisements
Track Severe Weather on mobile